createdAt,value
2022-11-18T00:01:28.214Z,1.80
2022-11-18T00:03:56.435Z,1.80
2022-11-18T00:06:26.885Z,1.80
2022-11-18T00:08:59.132Z,1.90
2022-11-18T00:11:46.365Z,1.70
2022-11-18T00:14:23.670Z,1.80
2022-11-18T00:16:54.473Z,1.80
2022-11-18T00:19:24.449Z,1.80
2022-11-18T00:21:52.619Z,1.80
2022-11-18T00:24:21.527Z,1.80
2022-11-18T00:26:51.030Z,1.80
2022-11-18T00:29:21.639Z,1.80
2022-11-18T00:31:50.090Z,1.80
2022-11-18T00:34:19.644Z,1.80
2022-11-18T00:36:48.618Z,1.80
2022-11-18T00:39:18.911Z,1.70
2022-11-18T00:42:04.578Z,1.80
2022-11-18T00:44:34.035Z,1.80
2022-11-18T00:47:02.112Z,1.80
2022-11-18T00:49:30.272Z,1.80
2022-11-18T00:51:58.326Z,1.80
2022-11-18T00:54:26.532Z,1.70
2022-11-18T00:56:54.556Z,1.60
2022-11-18T00:59:22.672Z,1.60
2022-11-18T01:01:52.180Z,1.60
2022-11-18T01:04:20.588Z,1.60
2022-11-18T01:06:48.623Z,1.70
2022-11-18T01:09:19.890Z,1.60
2022-11-18T01:12:05.608Z,1.60
2022-11-18T01:14:33.736Z,1.70
2022-11-18T01:17:03.159Z,1.60
2022-11-18T01:19:31.263Z,1.60
2022-11-18T01:22:03.082Z,1.50
2022-11-18T01:24:31.957Z,1.60
2022-11-18T01:27:00.542Z,1.60
2022-11-18T01:29:29.000Z,1.50
2022-11-18T01:32:22.839Z,1.50
2022-11-18T01:34:46.498Z,1.60
2022-11-18T01:37:14.533Z,1.60
2022-11-18T01:39:42.607Z,1.60
2022-11-18T01:42:15.532Z,1.60
2022-11-18T01:45:02.277Z,1.60
2022-11-18T01:47:34.271Z,1.60
2022-11-18T01:50:04.910Z,1.60
2022-11-18T01:52:34.737Z,1.60
2022-11-18T01:55:08.490Z,1.60
2022-11-18T01:57:36.677Z,1.60
2022-11-18T02:00:08.817Z,1.60
2022-11-18T02:02:38.474Z,1.60
2022-11-18T02:05:11.620Z,1.60
2022-11-18T02:07:43.098Z,1.60
2022-11-18T02:10:25.068Z,1.60
2022-11-18T02:12:54.787Z,1.60
2022-11-18T02:15:38.371Z,1.60
2022-11-18T02:18:14.476Z,1.60
2022-11-18T02:20:46.687Z,1.70
2022-11-18T02:23:44.416Z,1.60
2022-11-18T02:26:49.825Z,1.60
2022-11-18T02:29:24.542Z,1.60
2022-11-18T02:31:59.321Z,1.60
2022-11-18T02:34:38.170Z,1.60
2022-11-18T02:37:13.686Z,1.60
2022-11-18T02:39:48.940Z,1.60
2022-11-18T02:42:18.196Z,1.60
2022-11-18T02:44:53.647Z,1.60
2022-11-18T02:47:23.291Z,1.60
2022-11-18T02:49:55.506Z,1.60
2022-11-18T02:52:25.880Z,1.50
2022-11-18T02:54:55.651Z,1.50
2022-11-18T02:57:27.241Z,1.50
2022-11-18T02:59:56.971Z,1.50
2022-11-18T03:02:25.065Z,1.60
2022-11-18T03:04:56.427Z,1.60
2022-11-18T03:07:31.212Z,1.60
2022-11-18T03:10:01.066Z,1.60
2022-11-18T03:12:37.635Z,1.60
2022-11-18T03:15:17.704Z,1.60
2022-11-18T03:17:53.455Z,1.60
2022-11-18T03:20:26.367Z,1.60
2022-11-18T03:22:58.868Z,1.60
2022-11-18T03:25:33.545Z,1.60
2022-11-18T03:28:08.360Z,1.60
2022-11-18T03:30:42.988Z,1.60
2022-11-18T03:33:15.364Z,1.60
2022-11-18T03:35:48.767Z,1.60
2022-11-18T03:38:20.762Z,1.60
2022-11-18T03:40:53.457Z,1.50
2022-11-18T03:43:24.844Z,1.50
2022-11-18T03:45:58.990Z,1.50
2022-11-18T03:48:30.021Z,1.50
2022-11-18T03:51:01.764Z,1.50
2022-11-18T03:53:34.658Z,1.50
2022-11-18T03:56:09.557Z,1.40
2022-11-18T03:58:47.279Z,1.30
2022-11-18T04:01:20.880Z,1.40
2022-11-18T04:03:49.238Z,1.30
2022-11-18T04:06:24.413Z,1.40
2022-11-18T04:08:58.616Z,1.30
2022-11-18T04:11:55.906Z,1.30
2022-11-18T04:14:24.230Z,1.30
2022-11-18T04:16:53.968Z,1.30
2022-11-18T04:19:22.604Z,1.30
2022-11-18T04:21:51.322Z,1.20
2022-11-18T04:24:19.372Z,1.20
2022-11-18T04:26:47.473Z,1.20
2022-11-18T04:29:15.599Z,1.20
2022-11-18T04:31:43.902Z,1.20
2022-11-18T04:34:13.230Z,1.20
2022-11-18T04:36:41.257Z,1.20
2022-11-18T04:39:09.514Z,1.30
2022-11-18T04:41:55.005Z,1.30
2022-11-18T04:44:23.438Z,1.20
2022-11-18T04:46:51.757Z,1.20
2022-11-18T04:49:21.265Z,1.20
2022-11-18T04:51:50.068Z,1.10
2022-11-18T04:54:18.989Z,1.10
2022-11-18T04:56:49.672Z,1.10
2022-11-18T04:59:20.981Z,1.10
2022-11-18T05:01:49.821Z,1.10
2022-11-18T05:04:22.389Z,1.10
2022-11-18T05:06:53.784Z,1.10
2022-11-18T05:09:23.284Z,1.10
2022-11-18T05:12:12.004Z,1.10
2022-11-18T05:14:43.066Z,1.00
2022-11-18T05:17:14.844Z,1.10
2022-11-18T05:19:44.155Z,1.10
2022-11-18T05:22:12.181Z,1.10
2022-11-18T05:24:40.213Z,1.10
2022-11-18T05:27:08.239Z,1.10
2022-11-18T05:29:36.327Z,1.10
2022-11-18T05:32:04.448Z,1.10
2022-11-18T05:34:32.502Z,1.10
2022-11-18T05:37:02.058Z,1.10
2022-11-18T05:39:30.101Z,1.00
2022-11-18T05:42:15.637Z,1.10
2022-11-18T05:44:43.748Z,1.10
2022-11-18T05:47:11.817Z,1.10
2022-11-18T05:49:39.829Z,1.10
2022-11-18T05:52:09.233Z,1.10
2022-11-18T05:54:40.623Z,1.00
2022-11-18T05:57:08.701Z,1.00
2022-11-18T05:59:36.696Z,1.00
2022-11-18T06:02:08.925Z,1.00
2022-11-18T06:04:42.922Z,1.00
2022-11-18T06:07:18.444Z,1.00
2022-11-18T06:09:52.832Z,1.10
2022-11-18T06:12:24.645Z,1.10
2022-11-18T06:14:58.642Z,1.10
2022-11-18T06:17:30.086Z,1.10
2022-11-18T06:20:01.407Z,1.10
2022-11-18T06:22:30.980Z,1.10
2022-11-18T06:24:59.119Z,1.10
2022-11-18T06:27:27.220Z,1.10
2022-11-18T06:29:55.228Z,1.10
2022-11-18T06:32:23.353Z,1.10
2022-11-18T06:34:51.370Z,1.10
2022-11-18T06:37:21.587Z,1.10
2022-11-18T06:39:50.946Z,1.20
2022-11-18T06:42:33.020Z,1.20
2022-11-18T06:45:03.596Z,1.20
2022-11-18T06:47:31.971Z,1.20
2022-11-18T06:49:59.990Z,1.20
2022-11-18T06:52:28.580Z,1.30
2022-11-18T06:54:58.009Z,1.30
2022-11-18T06:57:26.088Z,1.30
2022-11-18T06:59:59.061Z,1.30
2022-11-18T07:02:29.857Z,1.40
2022-11-18T07:04:58.228Z,1.40
2022-11-18T07:07:27.419Z,1.40
2022-11-18T07:09:57.514Z,1.40
2022-11-18T07:12:28.801Z,1.40
2022-11-18T07:14:56.805Z,1.40
2022-11-18T07:17:27.163Z,1.40
2022-11-18T07:19:55.346Z,1.40
2022-11-18T07:22:23.358Z,1.40
2022-11-18T07:24:56.168Z,1.40
2022-11-18T07:27:28.650Z,1.50
2022-11-18T07:29:56.671Z,1.50
2022-11-18T07:32:24.747Z,1.60
2022-11-18T07:34:54.847Z,1.70
2022-11-18T07:37:22.838Z,1.70
2022-11-18T07:39:50.879Z,1.70
2022-11-18T07:42:19.006Z,1.80
2022-11-18T07:44:48.328Z,1.90
2022-11-18T07:47:16.378Z,1.90
2022-11-18T07:49:44.375Z,1.90
2022-11-18T07:52:12.446Z,1.90
2022-11-18T07:54:40.435Z,1.90
2022-11-18T07:57:08.503Z,1.80
2022-11-18T07:59:37.665Z,1.80
2022-11-18T08:02:08.825Z,1.90
2022-11-18T08:04:38.872Z,1.90
2022-11-18T08:07:07.113Z,1.90
2022-11-18T08:09:35.242Z,2.00
2022-11-18T08:12:04.317Z,2.00
2022-11-18T08:14:32.294Z,2.10
2022-11-18T08:17:00.450Z,2.10
2022-11-18T08:19:29.861Z,2.20
2022-11-18T08:21:57.913Z,2.20
2022-11-18T08:24:25.944Z,2.30
2022-11-18T08:26:53.992Z,2.30
2022-11-18T08:29:25.317Z,2.30
2022-11-18T08:31:54.711Z,2.40
2022-11-18T08:34:22.712Z,2.40
2022-11-18T08:36:52.136Z,2.30
2022-11-18T08:39:20.321Z,2.40
2022-11-18T08:41:49.018Z,2.40
2022-11-18T08:44:18.289Z,2.30
2022-11-18T08:46:46.775Z,2.30
2022-11-18T08:49:15.090Z,2.30
2022-11-18T08:51:43.240Z,2.30
2022-11-18T08:54:12.714Z,2.30
2022-11-18T08:56:40.697Z,2.40
2022-11-18T08:59:09.262Z,2.50
2022-11-18T09:01:37.765Z,2.50
2022-11-18T09:04:06.157Z,2.60
2022-11-18T09:06:34.758Z,2.70
2022-11-18T09:09:06.376Z,2.70
2022-11-18T09:11:38.847Z,2.50
2022-11-18T09:15:06.420Z,2.40
2022-11-18T09:16:55.241Z,2.60
2022-11-18T09:22:11.401Z,2.80
2022-11-18T09:24:40.928Z,2.90
2022-11-18T09:27:16.427Z,2.90
2022-11-18T09:29:45.496Z,3.00
2022-11-18T09:32:13.676Z,2.80
2022-11-18T09:34:41.693Z,2.80
2022-11-18T09:37:09.846Z,2.80
2022-11-18T09:39:38.192Z,2.90
2022-11-18T09:42:25.746Z,2.90
2022-11-18T09:45:10.059Z,2.80
2022-11-18T09:47:41.209Z,2.50
2022-11-18T09:50:42.191Z,2.30
2022-11-18T09:53:15.113Z,2.20
2022-11-18T09:55:43.598Z,2.30
2022-11-18T09:58:22.449Z,2.40
2022-11-18T10:00:53.034Z,2.50
2022-11-18T10:03:29.669Z,2.50
2022-11-18T10:06:03.682Z,2.50
2022-11-18T10:08:37.706Z,2.70
2022-11-18T10:11:11.846Z,2.70
2022-11-18T10:13:56.546Z,2.60
2022-11-18T10:16:37.684Z,2.50
2022-11-18T10:19:17.555Z,2.40
2022-11-18T10:21:55.648Z,2.30
2022-11-18T10:24:26.610Z,2.40
2022-11-18T10:26:57.338Z,2.50
2022-11-18T10:29:27.445Z,2.60
2022-11-18T10:32:04.363Z,2.80
2022-11-18T10:34:33.723Z,2.90
2022-11-18T10:37:04.483Z,3.10
2022-11-18T10:39:32.817Z,3.30
2022-11-18T10:42:04.088Z,3.50
2022-11-18T10:44:39.060Z,3.50
2022-11-18T10:47:22.585Z,3.50
2022-11-18T10:49:50.995Z,3.20
2022-11-18T10:52:19.445Z,3.10
2022-11-18T10:55:05.600Z,3.20
2022-11-18T10:57:39.152Z,3.20
2022-11-18T11:00:51.532Z,3.20
2022-11-18T11:03:33.973Z,3.20
2022-11-18T11:06:30.875Z,3.20
2022-11-18T11:09:01.255Z,3.10
2022-11-18T11:11:32.189Z,3.00
2022-11-18T11:14:08.143Z,3.10
2022-11-18T11:16:44.977Z,2.90
2022-11-18T11:19:14.177Z,2.90
2022-11-18T11:21:42.381Z,2.90
2022-11-18T11:24:13.586Z,3.00
2022-11-18T11:30:03.839Z,3.10
2022-11-18T11:32:51.454Z,3.10
2022-11-18T11:35:27.103Z,3.10
2022-11-18T11:38:01.610Z,3.00
2022-11-18T11:40:37.598Z,3.00
2022-11-18T11:43:25.286Z,3.10
2022-11-18T11:46:16.484Z,3.10
2022-11-18T11:48:57.782Z,3.10
2022-11-18T11:51:33.646Z,3.00
2022-11-18T11:54:19.490Z,3.10
2022-11-18T11:56:54.516Z,3.00
2022-11-18T11:59:30.590Z,3.10
2022-11-18T12:02:13.370Z,3.00
2022-11-18T12:04:46.211Z,3.00
2022-11-18T12:07:19.561Z,3.00
2022-11-18T12:10:11.400Z,2.90
2022-11-18T12:12:46.864Z,2.90
2022-11-18T12:15:32.218Z,3.00
2022-11-18T12:18:12.109Z,3.00
2022-11-18T12:20:44.998Z,2.80
2022-11-18T12:23:19.089Z,2.80
2022-11-18T12:26:09.889Z,2.90
2022-11-18T12:28:41.314Z,2.90
2022-11-18T12:31:32.268Z,2.90
2022-11-18T12:34:03.447Z,2.90
2022-11-18T12:36:35.288Z,3.00
2022-11-18T12:39:36.985Z,3.00
2022-11-18T12:42:24.184Z,3.10
2022-11-18T12:44:54.448Z,3.20
2022-11-18T12:47:52.231Z,3.20
2022-11-18T12:50:22.181Z,3.20
2022-11-18T12:52:53.789Z,3.10
2022-11-18T12:56:02.624Z,3.10
2022-11-18T12:58:30.681Z,3.10
2022-11-18T13:01:09.416Z,3.00
2022-11-18T13:03:37.807Z,3.00
2022-11-18T13:06:13.983Z,3.00
2022-11-18T13:08:43.661Z,3.10
2022-11-18T13:11:34.677Z,3.10
2022-11-18T13:14:21.479Z,3.10
2022-11-18T13:17:07.835Z,3.10
2022-11-18T13:19:35.999Z,3.00
2022-11-18T13:22:22.325Z,3.00
2022-11-18T13:24:53.424Z,3.00
2022-11-18T13:27:30.584Z,2.90
2022-11-18T13:30:05.213Z,3.00
2022-11-18T13:32:33.523Z,3.00
2022-11-18T13:35:12.591Z,2.80
2022-11-18T13:37:50.933Z,2.80
2022-11-18T13:40:26.528Z,2.70
2022-11-18T13:42:55.008Z,2.70
2022-11-18T13:45:26.876Z,2.70
2022-11-18T13:48:01.832Z,2.60
2022-11-18T13:50:36.467Z,2.60
2022-11-18T13:53:21.603Z,2.60
2022-11-18T13:55:54.523Z,2.60
2022-11-18T13:59:02.819Z,2.60
2022-11-18T14:01:27.787Z,2.60
2022-11-18T14:03:58.764Z,2.60
2022-11-18T14:06:28.487Z,2.50
2022-11-18T14:09:08.048Z,2.60
2022-11-18T14:11:39.286Z,2.50
2022-11-18T14:14:07.881Z,2.50
2022-11-18T14:16:38.154Z,2.40
2022-11-18T14:19:06.870Z,2.40
2022-11-18T14:21:38.281Z,2.40
2022-11-18T14:24:07.314Z,2.30
2022-11-18T14:26:38.359Z,2.40
2022-11-18T14:29:21.224Z,2.40
2022-11-18T14:32:16.256Z,2.40
2022-11-18T14:34:44.305Z,2.30
2022-11-18T14:37:14.575Z,2.30
2022-11-18T14:39:42.798Z,2.30
2022-11-18T14:42:14.964Z,2.40
2022-11-18T14:44:43.032Z,2.40
2022-11-18T14:47:21.556Z,2.40
2022-11-18T14:49:49.630Z,2.50
2022-11-18T14:52:17.880Z,2.50
2022-11-18T14:54:45.938Z,2.50
2022-11-18T14:57:17.361Z,2.50
2022-11-18T14:59:45.612Z,2.50
2022-11-18T15:02:16.578Z,2.50
2022-11-18T15:04:44.713Z,2.40
2022-11-18T15:07:21.530Z,2.40
2022-11-18T15:09:51.813Z,2.40
2022-11-18T15:12:21.134Z,2.30
2022-11-18T15:14:49.226Z,2.30
2022-11-18T15:17:20.333Z,2.30
2022-11-18T15:19:48.708Z,2.10
2022-11-18T15:22:17.565Z,2.10
2022-11-18T15:24:45.623Z,2.00
2022-11-18T15:27:13.607Z,2.00
2022-11-18T15:29:43.067Z,2.00
2022-11-18T15:32:11.070Z,2.00
2022-11-18T15:34:39.174Z,2.10
2022-11-18T15:37:07.178Z,1.90
2022-11-18T15:39:35.336Z,1.80
2022-11-18T15:42:03.334Z,1.80
2022-11-18T15:44:31.342Z,1.70
2022-11-18T15:47:01.671Z,1.50
2022-11-18T15:49:29.787Z,1.40
2022-11-18T15:52:00.733Z,1.40
2022-11-18T15:54:28.788Z,1.30
2022-11-18T15:56:58.985Z,1.30
2022-11-18T15:59:27.039Z,1.30
2022-11-18T16:01:56.898Z,1.30
2022-11-18T16:04:27.314Z,1.20
2022-11-18T16:06:55.519Z,1.10
2022-11-18T16:09:23.778Z,0.90
2022-11-18T16:12:09.038Z,0.80
2022-11-18T16:14:43.229Z,0.80
2022-11-18T16:17:11.242Z,0.90
2022-11-18T16:19:45.497Z,0.90
2022-11-18T16:22:13.739Z,0.90
2022-11-18T16:24:47.124Z,0.90
2022-11-18T16:27:16.577Z,0.80
2022-11-18T16:29:46.658Z,0.90
2022-11-18T16:32:19.437Z,0.80
2022-11-18T16:34:48.937Z,0.80
2022-11-18T16:37:16.993Z,0.70
2022-11-18T16:39:48.098Z,0.80
2022-11-18T16:42:16.295Z,0.70
2022-11-18T16:44:44.302Z,0.60
2022-11-18T16:47:15.176Z,0.50
2022-11-18T16:49:46.540Z,0.50
2022-11-18T16:52:15.976Z,0.60
2022-11-18T16:54:45.914Z,0.60
2022-11-18T16:57:15.204Z,0.60
2022-11-18T16:59:46.932Z,0.60
2022-11-18T17:02:15.849Z,0.70
2022-11-18T17:04:46.523Z,0.70
2022-11-18T17:07:18.955Z,0.70
2022-11-18T17:09:47.160Z,0.80
2022-11-18T17:12:15.376Z,0.80
2022-11-18T17:14:43.531Z,0.80
2022-11-18T17:17:11.555Z,0.70
2022-11-18T17:19:39.599Z,0.70
2022-11-18T17:22:10.407Z,0.70
2022-11-18T17:24:39.887Z,0.80
2022-11-18T17:27:07.893Z,0.80
2022-11-18T17:29:36.016Z,0.80
2022-11-18T17:32:04.252Z,0.90
2022-11-18T17:34:32.273Z,0.80
2022-11-18T17:37:06.590Z,0.80
2022-11-18T17:39:35.173Z,0.80
2022-11-18T17:42:17.945Z,0.90
2022-11-18T17:44:49.482Z,0.90
2022-11-18T17:47:17.620Z,0.80
2022-11-18T17:49:51.498Z,0.90
2022-11-18T17:52:19.687Z,0.90
2022-11-18T17:54:47.715Z,0.90
2022-11-18T17:57:20.227Z,0.90
2022-11-18T17:59:49.283Z,0.90
2022-11-18T18:02:23.661Z,0.90
2022-11-18T18:04:51.884Z,0.90
2022-11-18T18:07:22.745Z,0.80
2022-11-18T18:09:53.023Z,0.80
2022-11-18T18:12:40.150Z,0.80
2022-11-18T18:15:10.382Z,0.80
2022-11-18T18:17:38.453Z,0.80
2022-11-18T18:20:07.384Z,0.80
2022-11-18T18:22:35.457Z,0.80
2022-11-18T18:25:03.419Z,0.90
2022-11-18T18:27:33.249Z,0.90
2022-11-18T18:30:02.180Z,1.00
2022-11-18T18:32:31.283Z,1.00
2022-11-18T18:35:00.169Z,1.00
2022-11-18T18:37:28.402Z,1.00
2022-11-18T18:39:56.547Z,0.90
2022-11-18T18:42:24.786Z,0.90
2022-11-18T18:45:11.856Z,1.00
2022-11-18T18:47:39.923Z,1.00
2022-11-18T18:50:08.295Z,1.00
2022-11-18T18:52:36.591Z,1.10
2022-11-18T18:55:10.767Z,1.00
2022-11-18T18:57:41.763Z,1.10
2022-11-18T19:00:18.427Z,1.10
2022-11-18T19:02:47.762Z,1.00
2022-11-18T19:05:15.821Z,1.10
2022-11-18T19:07:44.237Z,1.10
2022-11-18T19:10:12.360Z,1.10
2022-11-18T19:12:53.392Z,1.10
2022-11-18T19:15:23.231Z,1.00
2022-11-18T19:17:54.058Z,1.00
2022-11-18T19:20:36.801Z,0.90
2022-11-18T19:23:10.083Z,1.00
2022-11-18T19:25:38.863Z,1.00
2022-11-18T19:28:06.942Z,0.90
2022-11-18T19:30:36.390Z,0.90
2022-11-18T19:33:07.653Z,0.90
2022-11-18T19:35:39.916Z,1.00
2022-11-18T19:38:08.000Z,1.00
2022-11-18T19:40:36.173Z,1.00
2022-11-18T19:43:04.414Z,1.00
2022-11-18T19:45:32.380Z,0.90
2022-11-18T19:48:02.893Z,0.90
2022-11-18T19:50:31.182Z,0.90
2022-11-18T19:53:19.318Z,0.90
2022-11-18T19:55:54.795Z,0.90
2022-11-18T19:58:25.523Z,0.90
2022-11-18T20:00:54.890Z,0.80
2022-11-18T20:03:28.861Z,0.70
2022-11-18T20:06:02.615Z,0.70
2022-11-18T20:08:33.374Z,0.60
2022-11-18T20:11:07.968Z,0.70
2022-11-18T20:13:44.851Z,0.70
2022-11-18T20:16:15.979Z,0.60
2022-11-18T20:18:47.666Z,0.60
2022-11-18T20:21:20.014Z,0.60
2022-11-18T20:23:49.536Z,0.70
2022-11-18T20:26:22.054Z,0.70
2022-11-18T20:28:55.907Z,0.70
2022-11-18T20:31:26.266Z,0.80
2022-11-18T20:33:57.088Z,0.80
2022-11-18T20:36:27.388Z,0.80
2022-11-18T20:38:57.291Z,0.80
2022-11-18T20:41:26.479Z,0.90
2022-11-18T20:43:54.862Z,0.90
2022-11-18T20:46:23.121Z,0.80
2022-11-18T20:48:51.799Z,0.80
2022-11-18T20:51:23.498Z,0.80
2022-11-18T20:53:52.505Z,0.80
2022-11-18T20:56:21.733Z,0.80
2022-11-18T20:58:50.420Z,0.90
2022-11-18T21:01:20.417Z,0.80
2022-11-18T21:03:52.680Z,0.80
2022-11-18T21:06:24.225Z,0.70
2022-11-18T21:08:56.330Z,0.70
2022-11-18T21:11:24.443Z,0.70
2022-11-18T21:14:09.942Z,0.70
2022-11-18T21:16:38.503Z,0.60
2022-11-18T21:19:06.506Z,0.60
2022-11-18T21:21:49.155Z,0.60
2022-11-18T21:24:21.896Z,0.60
2022-11-18T21:26:51.636Z,0.60
2022-11-18T21:29:19.976Z,0.60
2022-11-18T21:31:48.571Z,0.50
2022-11-18T21:34:18.043Z,0.50
2022-11-18T21:36:53.235Z,0.50
2022-11-18T21:39:25.425Z,0.50
2022-11-18T21:41:57.701Z,0.40
2022-11-18T21:44:28.203Z,0.40
2022-11-18T21:46:57.318Z,0.40
2022-11-18T21:49:25.390Z,0.40
2022-11-18T21:51:54.745Z,0.40
2022-11-18T21:54:22.805Z,0.40
2022-11-18T21:56:50.989Z,0.30
2022-11-18T21:59:19.339Z,0.30
2022-11-18T22:01:47.623Z,0.20
2022-11-18T22:04:36.801Z,0.20
2022-11-18T22:07:06.419Z,0.20
2022-11-18T22:09:36.792Z,0.30
2022-11-18T22:12:06.874Z,0.20
2022-11-18T22:14:35.587Z,0.30
2022-11-18T22:17:03.697Z,0.30
2022-11-18T22:19:31.887Z,0.30
2022-11-18T22:21:59.878Z,0.30
2022-11-18T22:24:29.301Z,0.10
2022-11-18T22:26:57.994Z,0.10
2022-11-18T22:29:28.323Z,0.10
2022-11-18T22:31:57.306Z,0.10
2022-11-18T22:34:25.371Z,0.20
2022-11-18T22:36:53.751Z,0.20
2022-11-18T22:39:22.248Z,0.30
2022-11-18T22:42:09.439Z,0.30
2022-11-18T22:44:37.553Z,0.20
2022-11-18T22:47:05.683Z,0.20
2022-11-18T22:49:36.217Z,0.20
2022-11-18T22:52:04.405Z,0.20
2022-11-18T22:54:40.486Z,0.20
2022-11-18T22:57:10.049Z,0.20
2022-11-18T22:59:38.089Z,0.20
2022-11-18T23:02:08.119Z,0.20
2022-11-18T23:04:36.226Z,0.20
2022-11-18T23:07:04.372Z,0.20
2022-11-18T23:09:32.512Z,0.20
2022-11-18T23:12:18.071Z,0.10
2022-11-18T23:14:48.543Z,0.10
2022-11-18T23:17:16.846Z,0.10
2022-11-18T23:19:46.209Z,0.10
2022-11-18T23:22:14.757Z,0.10
2022-11-18T23:24:42.751Z,0.10
2022-11-18T23:27:11.007Z,0.10
2022-11-18T23:29:38.981Z,0.10
2022-11-18T23:32:10.961Z,0.10
2022-11-18T23:34:39.051Z,0.20
2022-11-18T23:37:07.059Z,0.10
2022-11-18T23:39:36.381Z,0.10
2022-11-18T23:42:05.207Z,0.00
2022-11-18T23:44:50.270Z,0.00
2022-11-18T23:47:20.361Z,0.00
2022-11-18T23:49:48.407Z,0.00
2022-11-18T23:52:18.722Z,0.00
2022-11-18T23:54:49.797Z,0.00
2022-11-18T23:57:17.792Z,0.10
2022-11-18T23:59:46.001Z,0.10
